LESO

San Sebastián

Airport
ICAO code
LESO
Summary
ICAO Region
EUR
ICAO Territory
Location

Hondarribia, Basque Country,

Coordinates
43° 21' 23" N , 1° 47' 26" W
Metar
Observation
LESO 250130Z AUTO 20005KT 170V230 9999 FEW028 13/12 Q1017
Station
San Sebastian / Fuenterrabia
Date/Time
2022-09-25 01:30:00
Wind direction
200°
Wind speed
05 kts
Lowest cloud amount
few clouds
Temperature
13°C
Dew point
12°C
Humidity
93%
QNH
1017 hPa
Weather condition
n/a

Description

San Sebastián Airport is the airport serving San Sebastián in Basque Country, Spain. Despite its name, the facilities are located in the municipality of Hondarribia, with the runway stretching like a spit of land along the river Bidasoa right on the Spanish-French border.

Climatology

Runways

Designator Length Width Surface Rops
4/22 1754 45 ASP Yes/Yes

Airport map

Aerial View

SKYbrary Partners:

Safety knowledge contributed by: